sensor_id;sensor_type;location;lat;lon;timestamp;temperature;humidity
30702;DHT22;17451;49.908;7.980;2022-09-03T00:01:58;19.10;66.80
30702;DHT22;17451;49.908;7.980;2022-09-03T00:04:30;18.90;67.40
30702;DHT22;17451;49.908;7.980;2022-09-03T00:07:04;19.00;67.40
30702;DHT22;17451;49.908;7.980;2022-09-03T00:09:33;19.00;67.30
30702;DHT22;17451;49.908;7.980;2022-09-03T00:14:35;18.90;67.60
30702;DHT22;17451;49.908;7.980;2022-09-03T00:17:03;18.90;67.90
30702;DHT22;17451;49.908;7.980;2022-09-03T00:19:34;19.00;67.60
30702;DHT22;17451;49.908;7.980;2022-09-03T00:22:04;19.00;67.50
30702;DHT22;17451;49.908;7.980;2022-09-03T00:24:35;19.00;67.70
30702;DHT22;17451;49.908;7.980;2022-09-03T00:27:06;18.90;67.80
30702;DHT22;17451;49.908;7.980;2022-09-03T00:29:35;18.80;68.20
30702;DHT22;17451;49.908;7.980;2022-09-03T00:32:04;18.90;68.00
30702;DHT22;17451;49.908;7.980;2022-09-03T00:34:37;19.00;67.60
30702;DHT22;17451;49.908;7.980;2022-09-03T00:37:06;19.00;67.70
30702;DHT22;17451;49.908;7.980;2022-09-03T00:39:32;19.00;67.90
30702;DHT22;17451;49.908;7.980;2022-09-03T00:44:37;19.00;67.90
30702;DHT22;17451;49.908;7.980;2022-09-03T00:47:11;19.00;67.90
30702;DHT22;17451;49.908;7.980;2022-09-03T00:57:18;18.70;69.20
30702;DHT22;17451;49.908;7.980;2022-09-03T01:07:34;18.50;69.80
30702;DHT22;17451;49.908;7.980;2022-09-03T01:10:25;18.60;69.70
30702;DHT22;17451;49.908;7.980;2022-09-03T01:15:27;18.50;70.40
30702;DHT22;17451;49.908;7.980;2022-09-03T01:20:38;18.60;70.30
30702;DHT22;17451;49.908;7.980;2022-09-03T01:23:21;18.60;70.10
30702;DHT22;17451;49.908;7.980;2022-09-03T01:28:39;18.70;70.20
30702;DHT22;17451;49.908;7.980;2022-09-03T01:34:09;18.80;70.00
30702;DHT22;17451;49.908;7.980;2022-09-03T01:39:07;18.70;70.30
30702;DHT22;17451;49.908;7.980;2022-09-03T01:46:48;18.50;71.30
30702;DHT22;17451;49.908;7.980;2022-09-03T01:49:19;18.50;71.40
30702;DHT22;17451;49.908;7.980;2022-09-03T01:51:56;18.60;71.30
30702;DHT22;17451;49.908;7.980;2022-09-03T02:02:24;18.80;71.00
30702;DHT22;17451;49.908;7.980;2022-09-03T02:04:59;18.80;71.10
30702;DHT22;17451;49.908;7.980;2022-09-03T02:07:34;18.80;71.10
30702;DHT22;17451;49.908;7.980;2022-09-03T02:10:00;18.80;71.30
30702;DHT22;17451;49.908;7.980;2022-09-03T02:12:28;18.90;71.20
30702;DHT22;17451;49.908;7.980;2022-09-03T02:14:58;18.90;71.40
30702;DHT22;17451;49.908;7.980;2022-09-03T02:17:24;18.90;71.10
30702;DHT22;17451;49.908;7.980;2022-09-03T02:19:50;19.00;70.90
30702;DHT22;17451;49.908;7.980;2022-09-03T02:22:15;19.10;70.90
30702;DHT22;17451;49.908;7.980;2022-09-03T02:24:41;19.10;70.90
30702;DHT22;17451;49.908;7.980;2022-09-03T02:27:08;19.00;71.20
30702;DHT22;17451;49.908;7.980;2022-09-03T02:29:33;19.00;71.40
30702;DHT22;17451;49.908;7.980;2022-09-03T02:31:59;19.00;71.40
30702;DHT22;17451;49.908;7.980;2022-09-03T02:34:25;19.00;71.50
30702;DHT22;17451;49.908;7.980;2022-09-03T02:36:50;19.00;71.50
30702;DHT22;17451;49.908;7.980;2022-09-03T02:39:16;19.00;71.60
30702;DHT22;17451;49.908;7.980;2022-09-03T02:41:42;19.00;71.60
30702;DHT22;17451;49.908;7.980;2022-09-03T02:44:17;18.90;71.90
30702;DHT22;17451;49.908;7.980;2022-09-03T02:47:06;19.00;72.00
30702;DHT22;17451;49.908;7.980;2022-09-03T02:49:32;19.00;71.70
30702;DHT22;17451;49.908;7.980;2022-09-03T02:51:59;19.00;72.00
30702;DHT22;17451;49.908;7.980;2022-09-03T02:54:25;18.80;72.40
30702;DHT22;17451;49.908;7.980;2022-09-03T02:56:51;18.80;72.90
30702;DHT22;17451;49.908;7.980;2022-09-03T02:59:17;18.70;73.00
30702;DHT22;17451;49.908;7.980;2022-09-03T03:01:42;18.80;72.80
30702;DHT22;17451;49.908;7.980;2022-09-03T03:04:08;18.90;72.80
30702;DHT22;17451;49.908;7.980;2022-09-03T03:06:33;18.90;73.00
30702;DHT22;17451;49.908;7.980;2022-09-03T03:08:59;18.90;73.00
30702;DHT22;17451;49.908;7.980;2022-09-03T03:11:29;18.90;72.80
30702;DHT22;17451;49.908;7.980;2022-09-03T03:13:55;18.90;73.80
30702;DHT22;17451;49.908;7.980;2022-09-03T03:16:20;18.90;73.20
30702;DHT22;17451;49.908;7.980;2022-09-03T03:18:46;19.00;73.00
30702;DHT22;17451;49.908;7.980;2022-09-03T03:21:13;19.00;73.00
30702;DHT22;17451;49.908;7.980;2022-09-03T03:23:39;18.90;73.20
30702;DHT22;17451;49.908;7.980;2022-09-03T03:26:06;18.90;73.10
30702;DHT22;17451;49.908;7.980;2022-09-03T03:28:32;18.90;73.30
30702;DHT22;17451;49.908;7.980;2022-09-03T03:31:04;18.90;73.40
30702;DHT22;17451;49.908;7.980;2022-09-03T03:33:29;18.90;73.60
30702;DHT22;17451;49.908;7.980;2022-09-03T03:35:55;18.80;73.70
30702;DHT22;17451;49.908;7.980;2022-09-03T03:38:21;18.80;74.30
30702;DHT22;17451;49.908;7.980;2022-09-03T03:40:46;18.70;74.20
30702;DHT22;17451;49.908;7.980;2022-09-03T03:43:12;18.80;74.00
30702;DHT22;17451;49.908;7.980;2022-09-03T03:45:37;18.60;74.50
30702;DHT22;17451;49.908;7.980;2022-09-03T03:48:03;18.60;74.80
30702;DHT22;17451;49.908;7.980;2022-09-03T03:50:29;18.60;74.60
30702;DHT22;17451;49.908;7.980;2022-09-03T03:52:57;18.60;74.70
30702;DHT22;17451;49.908;7.980;2022-09-03T03:55:23;18.70;74.80
30702;DHT22;17451;49.908;7.980;2022-09-03T03:57:49;18.60;75.00
30702;DHT22;17451;49.908;7.980;2022-09-03T04:00:14;18.60;75.00
30702;DHT22;17451;49.908;7.980;2022-09-03T04:02:40;18.70;74.80
30702;DHT22;17451;49.908;7.980;2022-09-03T04:05:06;18.70;75.00
30702;DHT22;17451;49.908;7.980;2022-09-03T04:07:31;18.60;75.50
30702;DHT22;17451;49.908;7.980;2022-09-03T04:10:00;18.50;75.60
30702;DHT22;17451;49.908;7.980;2022-09-03T04:12:30;18.40;75.80
30702;DHT22;17451;49.908;7.980;2022-09-03T04:14:57;18.40;76.10
30702;DHT22;17451;49.908;7.980;2022-09-03T04:17:23;18.40;76.30
30702;DHT22;17451;49.908;7.980;2022-09-03T04:19:48;18.40;76.60
30702;DHT22;17451;49.908;7.980;2022-09-03T04:22:15;18.30;76.90
30702;DHT22;17451;49.908;7.980;2022-09-03T04:24:41;18.20;77.30
30702;DHT22;17451;49.908;7.980;2022-09-03T04:27:07;18.30;77.40
30702;DHT22;17451;49.908;7.980;2022-09-03T04:29:33;18.30;77.60
30702;DHT22;17451;49.908;7.980;2022-09-03T04:31:59;18.30;77.60
30702;DHT22;17451;49.908;7.980;2022-09-03T04:34:43;18.30;77.40
30702;DHT22;17451;49.908;7.980;2022-09-03T04:37:09;18.30;77.60
30702;DHT22;17451;49.908;7.980;2022-09-03T04:39:35;18.20;78.10
30702;DHT22;17451;49.908;7.980;2022-09-03T04:42:00;18.30;78.60
30702;DHT22;17451;49.908;7.980;2022-09-03T04:44:26;18.20;78.90
30702;DHT22;17451;49.908;7.980;2022-09-03T04:46:51;18.10;79.00
30702;DHT22;17451;49.908;7.980;2022-09-03T04:49:17;18.20;78.80
30702;DHT22;17451;49.908;7.980;2022-09-03T04:51:44;18.20;78.90
30702;DHT22;17451;49.908;7.980;2022-09-03T04:54:09;18.30;78.90
30702;DHT22;17451;49.908;7.980;2022-09-03T04:56:35;18.30;79.00
30702;DHT22;17451;49.908;7.980;2022-09-03T04:59:02;18.40;79.00
30702;DHT22;17451;49.908;7.980;2022-09-03T05:01:29;18.30;79.20
30702;DHT22;17451;49.908;7.980;2022-09-03T05:03:55;18.30;79.40
30702;DHT22;17451;49.908;7.980;2022-09-03T05:06:22;18.30;79.30
30702;DHT22;17451;49.908;7.980;2022-09-03T05:08:49;18.30;79.70
30702;DHT22;17451;49.908;7.980;2022-09-03T05:11:15;18.20;80.20
30702;DHT22;17451;49.908;7.980;2022-09-03T05:13:40;18.10;80.50
30702;DHT22;17451;49.908;7.980;2022-09-03T05:16:08;18.20;80.60
30702;DHT22;17451;49.908;7.980;2022-09-03T05:18:34;18.20;80.70
30702;DHT22;17451;49.908;7.980;2022-09-03T05:21:04;18.30;80.90
30702;DHT22;17451;49.908;7.980;2022-09-03T05:23:31;18.30;81.70
30702;DHT22;17451;49.908;7.980;2022-09-03T05:25:57;18.40;84.10
30702;DHT22;17451;49.908;7.980;2022-09-03T05:40:04;18.20;95.70
30702;DHT22;17451;49.908;7.980;2022-09-03T05:45:25;17.90;98.60
30702;DHT22;17451;49.908;7.980;2022-09-03T05:47:50;17.80;99.60
30702;DHT22;17451;49.908;7.980;2022-09-03T05:50:16;17.80;99.90
30702;DHT22;17451;49.908;7.980;2022-09-03T05:52:42;17.70;99.90
30702;DHT22;17451;49.908;7.980;2022-09-03T05:55:07;17.70;99.90
30702;DHT22;17451;49.908;7.980;2022-09-03T05:57:33;17.60;99.90
30702;DHT22;17451;49.908;7.980;2022-09-03T06:00:00;17.60;99.90
30702;DHT22;17451;49.908;7.980;2022-09-03T06:02:25;17.60;99.90
30702;DHT22;17451;49.908;7.980;2022-09-03T06:04:51;17.60;99.90
30702;DHT22;17451;49.908;7.980;2022-09-03T06:07:16;17.70;99.90
30702;DHT22;17451;49.908;7.980;2022-09-03T06:09:42;17.70;99.90
30702;DHT22;17451;49.908;7.980;2022-09-03T06:12:08;17.70;99.90
30702;DHT22;17451;49.908;7.980;2022-09-03T06:14:34;17.80;99.90
30702;DHT22;17451;49.908;7.980;2022-09-03T06:16:59;17.80;99.90
30702;DHT22;17451;49.908;7.980;2022-09-03T06:19:25;17.80;99.90
30702;DHT22;17451;49.908;7.980;2022-09-03T06:21:50;17.90;99.90
30702;DHT22;17451;49.908;7.980;2022-09-03T06:24:18;18.00;99.90
30702;DHT22;17451;49.908;7.980;2022-09-03T06:26:44;17.90;99.90
30702;DHT22;17451;49.908;7.980;2022-09-03T06:29:11;17.90;99.90
30702;DHT22;17451;49.908;7.980;2022-09-03T06:31:38;17.80;99.90
30702;DHT22;17451;49.908;7.980;2022-09-03T06:34:04;17.80;99.90
30702;DHT22;17451;49.908;7.980;2022-09-03T06:36:30;17.80;99.90
30702;DHT22;17451;49.908;7.980;2022-09-03T06:38:56;17.90;99.90
30702;DHT22;17451;49.908;7.980;2022-09-03T06:41:27;17.80;99.90
30702;DHT22;17451;49.908;7.980;2022-09-03T06:43:59;17.80;99.90
30702;DHT22;17451;49.908;7.980;2022-09-03T06:46:28;17.80;99.90
30702;DHT22;17451;49.908;7.980;2022-09-03T06:48:54;17.80;99.90
30702;DHT22;17451;49.908;7.980;2022-09-03T06:51:20;17.70;99.90
30702;DHT22;17451;49.908;7.980;2022-09-03T06:53:47;17.70;99.90
30702;DHT22;17451;49.908;7.980;2022-09-03T06:56:15;17.60;99.90
30702;DHT22;17451;49.908;7.980;2022-09-03T06:58:42;17.60;99.90
30702;DHT22;17451;49.908;7.980;2022-09-03T07:01:09;17.60;99.90
30702;DHT22;17451;49.908;7.980;2022-09-03T07:03:36;17.50;99.90
30702;DHT22;17451;49.908;7.980;2022-09-03T07:06:02;17.40;99.90
30702;DHT22;17451;49.908;7.980;2022-09-03T07:08:29;17.30;99.90
30702;DHT22;17451;49.908;7.980;2022-09-03T07:10:58;17.20;99.90
30702;DHT22;17451;49.908;7.980;2022-09-03T07:13:24;17.30;99.90
30702;DHT22;17451;49.908;7.980;2022-09-03T07:15:57;17.30;99.90
30702;DHT22;17451;49.908;7.980;2022-09-03T07:18:23;17.30;99.90
30702;DHT22;17451;49.908;7.980;2022-09-03T07:20:48;17.30;99.90
30702;DHT22;17451;49.908;7.980;2022-09-03T07:23:14;17.30;99.90
30702;DHT22;17451;49.908;7.980;2022-09-03T07:25:40;17.30;99.90
30702;DHT22;17451;49.908;7.980;2022-09-03T07:28:06;17.30;99.90
30702;DHT22;17451;49.908;7.980;2022-09-03T07:30:32;17.20;99.90
30702;DHT22;17451;49.908;7.980;2022-09-03T07:32:59;17.10;99.90
30702;DHT22;17451;49.908;7.980;2022-09-03T07:35:28;17.20;99.90
30702;DHT22;17451;49.908;7.980;2022-09-03T07:37:55;17.20;99.90
30702;DHT22;17451;49.908;7.980;2022-09-03T07:43:16;17.10;99.90
30702;DHT22;17451;49.908;7.980;2022-09-03T07:45:49;17.20;99.90
30702;DHT22;17451;49.908;7.980;2022-09-03T07:48:14;17.10;99.90
30702;DHT22;17451;49.908;7.980;2022-09-03T07:50:42;17.00;99.90
30702;DHT22;17451;49.908;7.980;2022-09-03T07:53:11;16.90;99.90
30702;DHT22;17451;49.908;7.980;2022-09-03T07:55:37;17.00;99.90
30702;DHT22;17451;49.908;7.980;2022-09-03T07:58:03;17.20;99.90
30702;DHT22;17451;49.908;7.980;2022-09-03T08:00:29;17.40;99.90
30702;DHT22;17451;49.908;7.980;2022-09-03T08:02:58;17.60;99.90
30702;DHT22;17451;49.908;7.980;2022-09-03T08:05:36;17.60;99.90
30702;DHT22;17451;49.908;7.980;2022-09-03T08:08:05;17.80;99.90
30702;DHT22;17451;49.908;7.980;2022-09-03T08:10:34;17.80;99.90
30702;DHT22;17451;49.908;7.980;2022-09-03T08:12:59;17.80;99.90
30702;DHT22;17451;49.908;7.980;2022-09-03T08:15:25;17.90;99.90
30702;DHT22;17451;49.908;7.980;2022-09-03T08:17:51;17.90;99.90
30702;DHT22;17451;49.908;7.980;2022-09-03T08:20:17;17.90;99.90
30702;DHT22;17451;49.908;7.980;2022-09-03T08:22:43;17.70;99.90
30702;DHT22;17451;49.908;7.980;2022-09-03T08:25:09;17.60;99.90
30702;DHT22;17451;49.908;7.980;2022-09-03T08:27:35;17.70;99.90
30702;DHT22;17451;49.908;7.980;2022-09-03T08:30:00;17.70;99.90
30702;DHT22;17451;49.908;7.980;2022-09-03T08:32:28;17.80;99.90
30702;DHT22;17451;49.908;7.980;2022-09-03T08:34:53;17.90;99.90
30702;DHT22;17451;49.908;7.980;2022-09-03T08:37:19;17.80;99.90
30702;DHT22;17451;49.908;7.980;2022-09-03T08:39:45;17.70;99.90
30702;DHT22;17451;49.908;7.980;2022-09-03T08:42:22;17.80;99.90
30702;DHT22;17451;49.908;7.980;2022-09-03T08:52:27;18.10;99.90
30702;DHT22;17451;49.908;7.980;2022-09-03T08:54:56;18.20;99.90
30702;DHT22;17451;49.908;7.980;2022-09-03T08:57:23;18.40;99.90
30702;DHT22;17451;49.908;7.980;2022-09-03T08:59:51;18.50;99.90
30702;DHT22;17451;49.908;7.980;2022-09-03T09:07:21;19.50;99.90
30702;DHT22;17451;49.908;7.980;2022-09-03T09:15:09;20.60;99.90
30702;DHT22;17451;49.908;7.980;2022-09-03T09:17:46;20.90;99.90
30702;DHT22;17451;49.908;7.980;2022-09-03T09:23:14;21.20;99.90
30702;DHT22;17451;49.908;7.980;2022-09-03T09:25:43;21.50;99.90
30702;DHT22;17451;49.908;7.980;2022-09-03T09:28:19;21.50;99.90
30702;DHT22;17451;49.908;7.980;2022-09-03T09:30:46;21.40;99.90
30702;DHT22;17451;49.908;7.980;2022-09-03T09:33:13;21.50;99.90
30702;DHT22;17451;49.908;7.980;2022-09-03T09:35:38;21.60;99.90
30702;DHT22;17451;49.908;7.980;2022-09-03T09:38:07;21.60;99.90
30702;DHT22;17451;49.908;7.980;2022-09-03T09:40:35;21.40;99.90
30702;DHT22;17451;49.908;7.980;2022-09-03T09:45:36;21.40;99.90
30702;DHT22;17451;49.908;7.980;2022-09-03T09:48:05;21.40;99.90
30702;DHT22;17451;49.908;7.980;2022-09-03T09:50:32;21.40;99.90
30702;DHT22;17451;49.908;7.980;2022-09-03T09:53:06;21.40;99.90
30702;DHT22;17451;49.908;7.980;2022-09-03T09:55:54;21.50;99.90
30702;DHT22;17451;49.908;7.980;2022-09-03T09:58:21;21.40;99.90
30702;DHT22;17451;49.908;7.980;2022-09-03T10:00:55;21.30;99.90
30702;DHT22;17451;49.908;7.980;2022-09-03T10:03:20;21.30;99.90
30702;DHT22;17451;49.908;7.980;2022-09-03T10:05:55;21.40;99.90
30702;DHT22;17451;49.908;7.980;2022-09-03T10:08:22;21.40;99.90
30702;DHT22;17451;49.908;7.980;2022-09-03T10:10:49;21.40;99.90
30702;DHT22;17451;49.908;7.980;2022-09-03T10:13:20;21.20;99.90
30702;DHT22;17451;49.908;7.980;2022-09-03T10:15:49;21.00;99.90
30702;DHT22;17451;49.908;7.980;2022-09-03T10:23:47;21.00;99.90
30702;DHT22;17451;49.908;7.980;2022-09-03T10:26:15;21.20;99.90
30702;DHT22;17451;49.908;7.980;2022-09-03T10:28:43;21.30;99.90
30702;DHT22;17451;49.908;7.980;2022-09-03T10:38:40;21.50;99.90
30702;DHT22;17451;49.908;7.980;2022-09-03T10:46:21;21.80;99.90
30702;DHT22;17451;49.908;7.980;2022-09-03T10:48:54;22.10;99.90
30702;DHT22;17451;49.908;7.980;2022-09-03T10:51:24;22.80;99.90
30702;DHT22;17451;49.908;7.980;2022-09-03T10:56:38;24.10;99.90
30702;DHT22;17451;49.908;7.980;2022-09-03T11:04:27;26.30;99.90
30702;DHT22;17451;49.908;7.980;2022-09-03T11:07:04;26.40;99.90
30702;DHT22;17451;49.908;7.980;2022-09-03T11:12:03;26.10;99.90
30702;DHT22;17451;49.908;7.980;2022-09-03T11:14:51;25.40;99.90
30702;DHT22;17451;49.908;7.980;2022-09-03T11:17:23;24.70;99.90
30702;DHT22;17451;49.908;7.980;2022-09-03T11:19:58;24.30;99.90
30702;DHT22;17451;49.908;7.980;2022-09-03T11:22:30;24.40;99.90
30702;DHT22;17451;49.908;7.980;2022-09-03T11:24:57;24.70;99.90
30702;DHT22;17451;49.908;7.980;2022-09-03T11:29:54;25.70;99.90
30702;DHT22;17451;49.908;7.980;2022-09-03T11:32:33;27.10;99.80
30702;DHT22;17451;49.908;7.980;2022-09-03T11:41:01;25.70;99.80
30702;DHT22;17451;49.908;7.980;2022-09-03T11:43:32;25.30;99.90
30702;DHT22;17451;49.908;7.980;2022-09-03T11:51:02;25.30;99.90
30702;DHT22;17451;49.908;7.980;2022-09-03T11:53:34;26.70;99.10
30702;DHT22;17451;49.908;7.980;2022-09-03T11:58:33;29.10;94.80
30702;DHT22;17451;49.908;7.980;2022-09-03T12:01:09;30.10;92.80
30702;DHT22;17451;49.908;7.980;2022-09-03T12:16:40;27.10;95.70
30702;DHT22;17451;49.908;7.980;2022-09-03T12:21:49;25.60;98.10
30702;DHT22;17451;49.908;7.980;2022-09-03T12:24:23;25.10;99.90
30702;DHT22;17451;49.908;7.980;2022-09-03T12:26:55;25.00;99.90
30702;DHT22;17451;49.908;7.980;2022-09-03T12:29:23;25.20;99.90
30702;DHT22;17451;49.908;7.980;2022-09-03T12:31:50;25.80;99.60
30702;DHT22;17451;49.908;7.980;2022-09-03T12:34:16;28.00;96.60
30702;DHT22;17451;49.908;7.980;2022-09-03T12:36:46;30.10;91.70
30702;DHT22;17451;49.908;7.980;2022-09-03T12:39:13;31.70;87.20
30702;DHT22;17451;49.908;7.980;2022-09-03T12:41:51;33.20;82.00
30702;DHT22;17451;49.908;7.980;2022-09-03T12:44:25;34.20;76.50
30702;DHT22;17451;49.908;7.980;2022-09-03T12:47:04;34.80;73.80
30702;DHT22;17451;49.908;7.980;2022-09-03T12:49:38;33.30;74.30
30702;DHT22;17451;49.908;7.980;2022-09-03T12:52:06;31.40;79.40
30702;DHT22;17451;49.908;7.980;2022-09-03T12:54:36;30.20;83.60
30702;DHT22;17451;49.908;7.980;2022-09-03T12:57:05;29.40;87.10
30702;DHT22;17451;49.908;7.980;2022-09-03T12:59:32;28.10;90.70
30702;DHT22;17451;49.908;7.980;2022-09-03T13:02:02;27.50;92.30
30702;DHT22;17451;49.908;7.980;2022-09-03T13:04:32;26.60;94.40
30702;DHT22;17451;49.908;7.980;2022-09-03T13:07:06;26.00;96.10
30702;DHT22;17451;49.908;7.980;2022-09-03T13:09:34;25.50;97.30
30702;DHT22;17451;49.908;7.980;2022-09-03T13:12:00;25.20;98.10
30702;DHT22;17451;49.908;7.980;2022-09-03T13:14:40;25.10;98.60
30702;DHT22;17451;49.908;7.980;2022-09-03T13:32:56;26.60;96.50
30702;DHT22;17451;49.908;7.980;2022-09-03T13:40:40;28.20;94.00
30702;DHT22;17451;49.908;7.980;2022-09-03T13:45:46;29.70;90.80
30702;DHT22;17451;49.908;7.980;2022-09-03T13:48:16;30.20;90.40
30702;DHT22;17451;49.908;7.980;2022-09-03T13:53:39;29.00;91.20
30702;DHT22;17451;49.908;7.980;2022-09-03T13:59:13;27.70;92.80
30702;DHT22;17451;49.908;7.980;2022-09-03T14:01:42;26.50;94.90
30702;DHT22;17451;49.908;7.980;2022-09-03T14:04:16;25.70;96.90
30702;DHT22;17451;49.908;7.980;2022-09-03T14:06:48;25.40;97.70
30702;DHT22;17451;49.908;7.980;2022-09-03T14:22:13;24.70;99.90
30702;DHT22;17451;49.908;7.980;2022-09-03T14:24:44;24.20;99.90
30702;DHT22;17451;49.908;7.980;2022-09-03T14:27:11;24.10;99.90
30702;DHT22;17451;49.908;7.980;2022-09-03T14:29:37;23.90;99.90
30702;DHT22;17451;49.908;7.980;2022-09-03T14:37:31;24.00;99.90
30702;DHT22;17451;49.908;7.980;2022-09-03T14:42:30;23.90;99.90
30702;DHT22;17451;49.908;7.980;2022-09-03T14:47:38;24.00;99.90
30702;DHT22;17451;49.908;7.980;2022-09-03T14:58:11;23.70;99.90
30702;DHT22;17451;49.908;7.980;2022-09-03T15:00:48;23.70;99.90
30702;DHT22;17451;49.908;7.980;2022-09-03T15:05:49;23.40;99.90
30702;DHT22;17451;49.908;7.980;2022-09-03T15:10:46;23.40;99.90
30702;DHT22;17451;49.908;7.980;2022-09-03T15:13:17;23.50;99.90
30702;DHT22;17451;49.908;7.980;2022-09-03T15:16:03;23.40;99.90
30702;DHT22;17451;49.908;7.980;2022-09-03T15:34:10;22.70;99.90
30702;DHT22;17451;49.908;7.980;2022-09-03T15:36:44;22.60;99.90
30702;DHT22;17451;49.908;7.980;2022-09-03T15:39:23;22.50;99.90
30702;DHT22;17451;49.908;7.980;2022-09-03T15:41:50;22.40;99.90
30702;DHT22;17451;49.908;7.980;2022-09-03T15:44:19;22.50;99.90
30702;DHT22;17451;49.908;7.980;2022-09-03T15:49:42;21.80;99.90
30702;DHT22;17451;49.908;7.980;2022-09-03T15:54:47;21.20;99.90
30702;DHT22;17451;49.908;7.980;2022-09-03T15:57:16;20.80;99.90
30702;DHT22;17451;49.908;7.980;2022-09-03T15:59:48;20.50;99.90
30702;DHT22;17451;49.908;7.980;2022-09-03T16:02:16;20.20;99.90
30702;DHT22;17451;49.908;7.980;2022-09-03T16:12:38;20.50;99.90
30702;DHT22;17451;49.908;7.980;2022-09-03T16:17:38;20.50;99.90
30702;DHT22;17451;49.908;7.980;2022-09-03T16:20:13;20.60;99.90
30702;DHT22;17451;49.908;7.980;2022-09-03T16:23:04;20.50;99.90
30702;DHT22;17451;49.908;7.980;2022-09-03T16:25:33;20.10;99.90
30702;DHT22;17451;49.908;7.980;2022-09-03T16:28:05;20.00;99.90
30702;DHT22;17451;49.908;7.980;2022-09-03T16:33:20;20.10;99.90
30702;DHT22;17451;49.908;7.980;2022-09-03T16:38:21;20.20;99.90
30702;DHT22;17451;49.908;7.980;2022-09-03T16:43:19;20.00;99.90
30702;DHT22;17451;49.908;7.980;2022-09-03T16:56:11;20.50;99.90
30702;DHT22;17451;49.908;7.980;2022-09-03T17:09:14;21.10;99.90
30702;DHT22;17451;49.908;7.980;2022-09-03T17:11:50;21.10;99.90
30702;DHT22;17451;49.908;7.980;2022-09-03T17:14:56;20.90;99.90
30702;DHT22;17451;49.908;7.980;2022-09-03T17:22:37;20.80;99.90
30702;DHT22;17451;49.908;7.980;2022-09-03T17:25:13;20.80;99.90
30702;DHT22;17451;49.908;7.980;2022-09-03T17:27:47;20.60;99.90
30702;DHT22;17451;49.908;7.980;2022-09-03T17:33:04;20.70;99.90
30702;DHT22;17451;49.908;7.980;2022-09-03T17:38:22;20.60;99.90
30702;DHT22;17451;49.908;7.980;2022-09-03T17:46:08;20.40;99.90
30702;DHT22;17451;49.908;7.980;2022-09-03T17:56:39;20.50;99.90
30702;DHT22;17451;49.908;7.980;2022-09-03T18:01:53;20.40;99.90
30702;DHT22;17451;49.908;7.980;2022-09-03T18:04:38;20.30;99.90
30702;DHT22;17451;49.908;7.980;2022-09-03T18:07:08;20.10;99.90
30702;DHT22;17451;49.908;7.980;2022-09-03T18:09:45;20.00;99.90
30702;DHT22;17451;49.908;7.980;2022-09-03T18:14:48;19.80;99.90
30702;DHT22;17451;49.908;7.980;2022-09-03T18:19:48;19.80;99.90
30702;DHT22;17451;49.908;7.980;2022-09-03T18:25:41;19.80;99.90
30702;DHT22;17451;49.908;7.980;2022-09-03T18:28:33;19.60;99.90
30702;DHT22;17451;49.908;7.980;2022-09-03T18:31:18;19.60;99.90
30702;DHT22;17451;49.908;7.980;2022-09-03T18:34:02;19.50;99.90
30702;DHT22;17451;49.908;7.980;2022-09-03T18:36:46;19.50;99.90
30702;DHT22;17451;49.908;7.980;2022-09-03T18:39:31;19.40;99.90
30702;DHT22;17451;49.908;7.980;2022-09-03T18:48:27;19.50;99.90
30702;DHT22;17451;49.908;7.980;2022-09-03T18:51:35;19.30;99.90
30702;DHT22;17451;49.908;7.980;2022-09-03T18:54:26;19.30;99.90
30702;DHT22;17451;49.908;7.980;2022-09-03T18:57:18;19.20;99.90
30702;DHT22;17451;49.908;7.980;2022-09-03T19:00:10;19.10;99.90
30702;DHT22;17451;49.908;7.980;2022-09-03T19:11:45;19.10;99.90
30702;DHT22;17451;49.908;7.980;2022-09-03T19:17:52;19.20;99.90
30702;DHT22;17451;49.908;7.980;2022-09-03T19:20:38;19.20;99.90
30702;DHT22;17451;49.908;7.980;2022-09-03T19:23:24;19.30;99.90
30702;DHT22;17451;49.908;7.980;2022-09-03T19:26:24;19.30;99.90
30702;DHT22;17451;49.908;7.980;2022-09-03T19:29:58;19.30;99.90
30702;DHT22;17451;49.908;7.980;2022-09-03T19:32:21;19.30;99.90
30702;DHT22;17451;49.908;7.980;2022-09-03T19:35:18;19.30;99.90
30702;DHT22;17451;49.908;7.980;2022-09-03T19:38:14;19.30;99.90
30702;DHT22;17451;49.908;7.980;2022-09-03T19:46:55;19.10;99.90
30702;DHT22;17451;49.908;7.980;2022-09-03T19:50:00;19.00;99.90
30702;DHT22;17451;49.908;7.980;2022-09-03T19:55:34;19.00;99.90
30702;DHT22;17451;49.908;7.980;2022-09-03T19:58:20;18.90;99.90
30702;DHT22;17451;49.908;7.980;2022-09-03T20:01:06;18.90;99.90
30702;DHT22;17451;49.908;7.980;2022-09-03T20:03:51;18.80;99.90
30702;DHT22;17451;49.908;7.980;2022-09-03T20:06:35;18.80;99.90
30702;DHT22;17451;49.908;7.980;2022-09-03T20:09:20;18.70;99.90
30702;DHT22;17451;49.908;7.980;2022-09-03T20:12:06;18.70;99.90
30702;DHT22;17451;49.908;7.980;2022-09-03T20:14:32;18.60;99.90
30702;DHT22;17451;49.908;7.980;2022-09-03T20:30:21;18.60;99.90
30702;DHT22;17451;49.908;7.980;2022-09-03T20:32:58;18.50;99.90
30702;DHT22;17451;49.908;7.980;2022-09-03T20:51:08;18.40;99.90
30702;DHT22;17451;49.908;7.980;2022-09-03T20:56:30;18.40;99.90
30702;DHT22;17451;49.908;7.980;2022-09-03T21:01:32;18.40;99.90
30702;DHT22;17451;49.908;7.980;2022-09-03T21:04:11;18.40;99.90
30702;DHT22;17451;49.908;7.980;2022-09-03T21:06:43;18.30;99.90
30702;DHT22;17451;49.908;7.980;2022-09-03T21:16:58;18.20;99.90
30702;DHT22;17451;49.908;7.980;2022-09-03T21:22:12;18.20;99.90
30702;DHT22;17451;49.908;7.980;2022-09-03T21:27:27;18.20;99.90
30702;DHT22;17451;49.908;7.980;2022-09-03T21:29:59;18.20;99.90
30702;DHT22;17451;49.908;7.980;2022-09-03T21:37:20;18.20;99.90
30702;DHT22;17451;49.908;7.980;2022-09-03T21:39:53;18.20;99.90
30702;DHT22;17451;49.908;7.980;2022-09-03T21:42:29;18.10;99.90
30702;DHT22;17451;49.908;7.980;2022-09-03T21:50:54;18.00;99.90
30702;DHT22;17451;49.908;7.980;2022-09-03T21:53:40;18.00;99.90
30702;DHT22;17451;49.908;7.980;2022-09-03T21:56:14;18.10;99.90
30702;DHT22;17451;49.908;7.980;2022-09-03T22:01:17;17.90;99.90
30702;DHT22;17451;49.908;7.980;2022-09-03T22:03:44;17.90;99.90
30702;DHT22;17451;49.908;7.980;2022-09-03T22:06:15;18.00;99.90
30702;DHT22;17451;49.908;7.980;2022-09-03T22:11:51;18.10;99.90
30702;DHT22;17451;49.908;7.980;2022-09-03T22:14:18;18.00;99.90
30702;DHT22;17451;49.908;7.980;2022-09-03T22:17:01;18.10;99.90
30702;DHT22;17451;49.908;7.980;2022-09-03T22:19:31;18.10;99.90
30702;DHT22;17451;49.908;7.980;2022-09-03T22:22:07;18.10;99.90
30702;DHT22;17451;49.908;7.980;2022-09-03T22:27:23;18.10;99.90
30702;DHT22;17451;49.908;7.980;2022-09-03T22:42:59;18.10;99.90
30702;DHT22;17451;49.908;7.980;2022-09-03T22:53:16;18.10;99.90
30702;DHT22;17451;49.908;7.980;2022-09-03T22:55:46;18.00;99.90
30702;DHT22;17451;49.908;7.980;2022-09-03T22:58:15;17.90;99.90